createdAt,value
2023-05-19T00:01:19.587Z,62.91
2023-05-19T00:04:02.972Z,63.61
2023-05-19T00:06:33.499Z,63.32
2023-05-19T00:09:03.805Z,63.38
2023-05-19T00:11:31.003Z,62.69
2023-05-19T00:13:59.814Z,63.31
2023-05-19T00:16:27.890Z,62.67
2023-05-19T00:18:54.754Z,62.94
2023-05-19T00:21:21.575Z,62.57
2023-05-19T00:23:48.229Z,62.21
2023-05-19T00:26:15.096Z,62.31
2023-05-19T00:28:41.731Z,62.66
2023-05-19T00:31:08.408Z,62.48
2023-05-19T00:33:35.174Z,62.67
2023-05-19T00:36:03.723Z,62.69
2023-05-19T00:38:31.730Z,62.64
2023-05-19T00:40:59.219Z,63.31
2023-05-19T00:43:26.230Z,63.33
2023-05-19T00:45:52.934Z,62.99
2023-05-19T00:48:19.648Z,62.46
2023-05-19T00:50:46.679Z,62.55
2023-05-19T00:53:14.889Z,62.88
2023-05-19T00:55:42.793Z,63.62
2023-05-19T00:58:11.849Z,62.76
2023-05-19T01:00:39.804Z,62.56
2023-05-19T01:03:13.341Z,64.50
2023-05-19T01:05:53.709Z,63.62
2023-05-19T01:08:20.681Z,63.33
2023-05-19T01:10:47.449Z,63.86
2023-05-19T01:13:14.493Z,64.83
2023-05-19T01:16:00.258Z,65.53
2023-05-19T01:18:34.619Z,65.62
2023-05-19T01:21:44.459Z,65.79
2023-05-19T01:24:37.208Z,65.01
2023-05-19T01:27:06.621Z,66.50
2023-05-19T01:29:45.328Z,66.45
2023-05-19T01:32:13.928Z,68.40
2023-05-19T01:34:44.330Z,67.52
2023-05-19T01:37:14.438Z,67.09
2023-05-19T01:39:44.195Z,68.39
2023-05-19T01:42:12.819Z,68.70
2023-05-19T01:44:39.683Z,69.36
2023-05-19T01:47:07.169Z,68.49
2023-05-19T01:49:33.832Z,67.92
2023-05-19T01:52:00.509Z,68.12
2023-05-19T01:54:27.166Z,68.61
2023-05-19T01:57:09.070Z,68.48
2023-05-19T02:00:08.421Z,67.71
2023-05-19T02:02:41.090Z,67.27
2023-05-19T02:05:18.341Z,68.29
2023-05-19T02:07:56.825Z,68.21
2023-05-19T02:10:28.024Z,68.29
2023-05-19T02:13:01.274Z,67.78
2023-05-19T02:15:30.211Z,67.00
2023-05-19T02:18:00.365Z,66.86
2023-05-19T02:20:27.054Z,67.00
2023-05-19T02:22:53.755Z,67.17
2023-05-19T02:25:21.670Z,67.75
2023-05-19T02:27:49.192Z,68.09
2023-05-19T02:30:15.971Z,68.03
2023-05-19T02:32:42.650Z,67.87
2023-05-19T02:35:09.878Z,68.13
2023-05-19T02:37:36.566Z,67.18
2023-05-19T02:40:04.289Z,67.63
2023-05-19T02:42:31.423Z,68.97
2023-05-19T02:44:58.156Z,68.06
2023-05-19T02:47:24.821Z,67.80
2023-05-19T02:49:51.482Z,69.47
2023-05-19T02:52:18.179Z,69.15
2023-05-19T02:54:44.902Z,69.63
2023-05-19T02:57:11.693Z,69.95
2023-05-19T02:59:38.429Z,69.92
2023-05-19T03:02:05.296Z,69.41
2023-05-19T03:04:32.056Z,68.96
2023-05-19T03:06:58.757Z,69.37
2023-05-19T03:09:25.626Z,69.03
2023-05-19T03:11:52.325Z,68.91
2023-05-19T03:14:24.033Z,69.05
2023-05-19T03:16:51.116Z,68.99
2023-05-19T03:19:18.387Z,70.09
2023-05-19T03:21:45.139Z,68.74
2023-05-19T03:24:11.993Z,70.47
2023-05-19T03:26:38.739Z,69.10
2023-05-19T03:29:05.381Z,70.04
2023-05-19T03:31:32.080Z,70.20
2023-05-19T03:33:58.726Z,70.51
2023-05-19T03:36:26.331Z,70.43
2023-05-19T03:38:52.978Z,71.03
2023-05-19T03:41:19.606Z,70.06
2023-05-19T03:43:46.270Z,71.01
2023-05-19T03:46:12.927Z,70.66
2023-05-19T03:48:39.626Z,69.82
2023-05-19T03:51:06.304Z,70.54
2023-05-19T03:53:33.113Z,70.74
2023-05-19T03:56:00.700Z,71.38
2023-05-19T03:58:27.331Z,71.21
2023-05-19T04:00:53.989Z,70.98
2023-05-19T04:03:21.093Z,71.16
2023-05-19T04:05:48.056Z,70.21
2023-05-19T04:08:14.682Z,69.37
2023-05-19T04:10:41.384Z,69.55
2023-05-19T04:13:08.035Z,69.74
2023-05-19T04:15:34.839Z,70.79
2023-05-19T04:18:01.573Z,70.28
2023-05-19T04:20:28.275Z,69.38
2023-05-19T04:22:54.930Z,70.06
2023-05-19T04:25:21.606Z,69.82
2023-05-19T04:27:48.894Z,70.22
2023-05-19T04:30:22.248Z,71.02
2023-05-19T04:32:52.138Z,71.28
2023-05-19T04:35:19.443Z,71.28
2023-05-19T04:37:46.180Z,70.97
2023-05-19T04:40:13.460Z,71.11
2023-05-19T04:42:45.861Z,71.53
2023-05-19T04:45:14.204Z,70.65
2023-05-19T04:47:42.415Z,71.33
2023-05-19T04:50:11.182Z,71.82
2023-05-19T04:52:37.858Z,70.68
2023-05-19T04:55:04.852Z,71.41
2023-05-19T04:57:31.746Z,71.44
2023-05-19T05:00:00.378Z,71.74
2023-05-19T05:02:30.076Z,72.46
2023-05-19T05:04:56.844Z,72.58
2023-05-19T05:07:24.129Z,71.93
2023-05-19T05:09:51.087Z,71.91
2023-05-19T05:12:18.709Z,71.62
2023-05-19T05:14:45.884Z,71.59
2023-05-19T05:17:13.399Z,71.78
2023-05-19T05:19:40.810Z,72.09
2023-05-19T05:22:07.792Z,72.07
2023-05-19T05:24:34.728Z,72.38
2023-05-19T05:27:01.541Z,72.09
2023-05-19T05:29:28.156Z,71.64
2023-05-19T05:31:54.832Z,72.26
2023-05-19T05:34:21.536Z,71.81
2023-05-19T05:36:48.212Z,71.96
2023-05-19T05:39:14.876Z,71.39
2023-05-19T05:41:41.528Z,71.19
2023-05-19T05:44:08.244Z,71.36
2023-05-19T05:46:34.998Z,71.70
2023-05-19T05:49:02.137Z,71.80
2023-05-19T05:51:29.044Z,71.62
2023-05-19T05:53:56.721Z,71.46
2023-05-19T05:56:23.639Z,71.42
2023-05-19T05:58:50.722Z,71.37
2023-05-19T06:01:17.916Z,71.16
2023-05-19T06:03:45.110Z,70.53
2023-05-19T06:06:12.474Z,70.91
2023-05-19T06:08:39.181Z,70.79
2023-05-19T06:11:09.371Z,70.50
2023-05-19T06:13:37.018Z,70.47
2023-05-19T06:16:04.201Z,70.37
2023-05-19T06:18:30.876Z,70.02
2023-05-19T06:20:57.556Z,69.87
2023-05-19T06:23:25.293Z,69.76
2023-05-19T06:25:52.021Z,69.48
2023-05-19T06:28:18.688Z,69.75
2023-05-19T06:30:45.308Z,69.86
2023-05-19T06:33:12.082Z,70.04
2023-05-19T06:35:38.742Z,69.69
2023-05-19T06:38:05.415Z,69.64
2023-05-19T06:40:32.212Z,69.41
2023-05-19T06:42:59.103Z,69.63
2023-05-19T06:45:25.818Z,68.92
2023-05-19T06:47:52.595Z,68.57
2023-05-19T06:50:19.442Z,68.03
2023-05-19T06:52:47.185Z,68.21
2023-05-19T06:55:13.908Z,68.40
2023-05-19T06:57:40.608Z,68.80
2023-05-19T07:00:13.429Z,68.63
2023-05-19T07:02:41.987Z,69.02
2023-05-19T07:05:09.321Z,68.59
2023-05-19T07:07:36.065Z,68.52
2023-05-19T07:10:02.779Z,68.12
2023-05-19T07:12:29.446Z,68.26
2023-05-19T07:14:56.155Z,68.54
2023-05-19T07:17:22.925Z,68.63
2023-05-19T07:19:49.617Z,67.82
2023-05-19T07:22:16.305Z,67.33
2023-05-19T07:24:43.015Z,67.69
2023-05-19T07:27:10.346Z,67.78
2023-05-19T07:29:37.099Z,67.58
2023-05-19T07:32:04.093Z,67.86
2023-05-19T07:34:31.019Z,67.34
2023-05-19T07:36:57.772Z,67.01
2023-05-19T07:39:26.761Z,66.38
2023-05-19T07:41:55.751Z,66.86
2023-05-19T07:44:22.452Z,66.74
2023-05-19T07:46:49.168Z,66.35
2023-05-19T07:49:15.878Z,65.96
2023-05-19T07:51:42.530Z,65.24
2023-05-19T07:54:09.274Z,66.08
2023-05-19T07:56:37.141Z,66.09
2023-05-19T07:59:04.594Z,65.71
2023-05-19T08:01:32.426Z,65.61
2023-05-19T08:03:59.279Z,64.82
2023-05-19T08:06:26.087Z,64.91
2023-05-19T08:08:54.303Z,65.05
2023-05-19T08:11:21.650Z,64.98
2023-05-19T08:13:49.362Z,63.69
2023-05-19T08:16:16.449Z,64.63
2023-05-19T08:18:43.298Z,63.92
2023-05-19T08:21:10.016Z,63.45
2023-05-19T08:23:37.504Z,63.93
2023-05-19T08:26:04.542Z,63.00
2023-05-19T08:28:31.535Z,63.46
2023-05-19T08:30:58.291Z,63.16
2023-05-19T08:33:25.034Z,62.96
2023-05-19T08:35:51.768Z,63.01
2023-05-19T08:38:18.509Z,63.53
2023-05-19T08:40:48.023Z,62.69
2023-05-19T08:43:14.775Z,63.05
2023-05-19T08:45:44.784Z,63.39
2023-05-19T08:48:13.525Z,63.48
2023-05-19T08:50:44.908Z,62.52
2023-05-19T08:53:33.355Z,62.78
2023-05-19T08:56:24.249Z,62.63
2023-05-19T08:58:51.886Z,62.71
2023-05-19T09:01:20.457Z,63.15
2023-05-19T09:03:49.908Z,62.54
2023-05-19T09:06:17.147Z,63.14
2023-05-19T09:08:44.393Z,62.42
2023-05-19T09:11:11.342Z,62.43
2023-05-19T09:13:38.434Z,62.05
2023-05-19T09:16:05.448Z,61.75
2023-05-19T09:18:32.550Z,61.88
2023-05-19T09:21:03.027Z,61.87
2023-05-19T09:23:34.138Z,61.62
2023-05-19T09:26:07.595Z,62.21
2023-05-19T09:28:36.647Z,62.25
2023-05-19T09:31:10.349Z,61.77
2023-05-19T09:33:45.612Z,62.14
2023-05-19T09:36:13.788Z,62.60
2023-05-19T09:38:40.702Z,62.50
2023-05-19T09:41:08.592Z,62.44
2023-05-19T09:43:35.780Z,61.07
2023-05-19T09:46:12.913Z,62.00
2023-05-19T09:48:41.200Z,61.99
2023-05-19T09:51:10.375Z,61.62
2023-05-19T09:53:37.341Z,61.54
2023-05-19T09:56:04.281Z,61.20
2023-05-19T09:58:35.525Z,60.63
2023-05-19T10:01:03.810Z,59.63
2023-05-19T10:03:32.852Z,57.96
2023-05-19T10:06:01.477Z,58.52
2023-05-19T10:08:30.708Z,57.58
2023-05-19T10:10:58.369Z,57.35
2023-05-19T10:13:26.748Z,56.44
2023-05-19T10:15:58.687Z,56.84
2023-05-19T10:18:26.988Z,56.67
2023-05-19T10:20:54.383Z,55.59
2023-05-19T10:23:21.185Z,55.86
2023-05-19T10:25:49.369Z,56.05
2023-05-19T10:28:18.589Z,56.26
2023-05-19T10:30:49.873Z,55.30
2023-05-19T10:33:18.829Z,53.86
2023-05-19T10:36:23.328Z,54.68
2023-05-19T10:39:06.686Z,53.33
2023-05-19T10:41:39.362Z,54.80
2023-05-19T10:44:29.679Z,54.85
2023-05-19T10:46:57.125Z,53.47
2023-05-19T10:49:24.178Z,53.29
2023-05-19T10:51:52.483Z,54.47
2023-05-19T10:54:40.891Z,53.72
2023-05-19T10:57:08.580Z,53.72
2023-05-19T10:59:40.001Z,53.95
2023-05-19T11:02:08.826Z,53.15
2023-05-19T11:04:51.811Z,53.49
2023-05-19T11:07:22.488Z,53.71
2023-05-19T11:09:53.162Z,54.82
2023-05-19T11:12:25.342Z,54.63
2023-05-19T11:14:55.938Z,53.02
2023-05-19T11:17:25.740Z,54.59
2023-05-19T11:19:57.109Z,52.87
2023-05-19T11:22:26.189Z,53.81
2023-05-19T11:24:55.326Z,52.78
2023-05-19T11:27:31.847Z,52.32
2023-05-19T11:30:01.854Z,52.31
2023-05-19T11:32:31.209Z,52.90
2023-05-19T11:34:58.261Z,52.35
2023-05-19T11:37:25.348Z,52.26
2023-05-19T11:39:53.091Z,53.18
2023-05-19T11:42:20.229Z,53.21
2023-05-19T11:44:47.362Z,52.75
2023-05-19T11:47:14.871Z,52.65
2023-05-19T11:49:46.084Z,52.97
2023-05-19T11:52:13.208Z,52.33
2023-05-19T11:54:41.971Z,52.17
2023-05-19T11:57:14.067Z,51.47
2023-05-19T11:59:45.490Z,51.22
2023-05-19T12:02:28.169Z,50.82
2023-05-19T12:04:55.300Z,51.17
2023-05-19T12:07:26.117Z,49.97
2023-05-19T12:09:53.660Z,50.31
2023-05-19T12:12:21.449Z,50.32
2023-05-19T12:14:51.242Z,49.00
2023-05-19T12:17:25.610Z,50.03
2023-05-19T12:19:52.683Z,49.85
2023-05-19T12:22:19.724Z,50.49
2023-05-19T12:24:47.334Z,49.24
2023-05-19T12:27:19.639Z,50.34
2023-05-19T12:30:05.103Z,50.53
2023-05-19T12:32:35.397Z,49.88
2023-05-19T12:35:06.210Z,49.41
2023-05-19T12:37:34.935Z,49.50
2023-05-19T12:40:03.735Z,49.11
2023-05-19T12:42:31.529Z,49.69
2023-05-19T12:45:01.519Z,49.30
2023-05-19T12:47:33.087Z,49.80
2023-05-19T12:49:59.745Z,49.17
2023-05-19T12:52:29.052Z,48.77
2023-05-19T12:55:07.279Z,48.18
2023-05-19T12:57:58.062Z,48.14
2023-05-19T13:00:28.359Z,49.51
2023-05-19T13:03:22.382Z,48.75
2023-05-19T13:05:51.089Z,48.33
2023-05-19T13:08:20.387Z,47.85
2023-05-19T13:10:47.822Z,47.67
2023-05-19T13:13:14.830Z,47.03
2023-05-19T13:15:44.960Z,48.38
2023-05-19T13:18:13.654Z,48.27
2023-05-19T13:20:42.101Z,48.09
2023-05-19T13:23:13.941Z,49.42
2023-05-19T13:25:41.608Z,49.16
2023-05-19T13:28:08.737Z,47.90
2023-05-19T13:30:38.118Z,48.27
2023-05-19T13:33:05.561Z,49.32
2023-05-19T13:35:37.958Z,49.88
2023-05-19T13:38:06.871Z,50.01
2023-05-19T13:40:34.974Z,49.37
2023-05-19T13:43:03.120Z,50.19
2023-05-19T13:45:30.203Z,50.56
2023-05-19T13:47:57.113Z,50.21
2023-05-19T13:50:23.916Z,50.83
2023-05-19T13:52:50.646Z,50.76
2023-05-19T13:55:17.519Z,50.66
2023-05-19T13:57:44.931Z,51.28
2023-05-19T14:00:11.938Z,50.65
2023-05-19T14:02:39.320Z,51.29
2023-05-19T14:05:07.392Z,51.18
2023-05-19T14:07:37.132Z,51.71
2023-05-19T14:10:06.003Z,51.79
2023-05-19T14:12:43.156Z,51.71
2023-05-19T14:15:14.461Z,51.86
2023-05-19T14:17:41.427Z,52.88
2023-05-19T14:20:08.692Z,52.27
2023-05-19T14:22:35.375Z,52.48
2023-05-19T14:25:02.492Z,51.95
2023-05-19T14:27:29.153Z,52.92
2023-05-19T14:29:55.881Z,52.63
2023-05-19T14:32:22.611Z,52.63
2023-05-19T14:34:52.892Z,52.78
2023-05-19T14:37:20.442Z,53.47
2023-05-19T14:39:47.159Z,53.50
2023-05-19T14:42:13.889Z,53.05
2023-05-19T14:44:40.608Z,53.28
2023-05-19T14:47:07.498Z,53.93
2023-05-19T14:49:34.467Z,53.66
2023-05-19T14:52:01.349Z,54.27
2023-05-19T14:54:28.206Z,53.80
2023-05-19T14:56:54.886Z,54.41
2023-05-19T14:59:21.834Z,54.04
2023-05-19T15:01:48.651Z,54.30
2023-05-19T15:04:15.674Z,53.87
2023-05-19T15:06:42.498Z,54.01
2023-05-19T15:09:09.523Z,54.29
2023-05-19T15:11:36.182Z,54.17
2023-05-19T15:14:02.833Z,54.52
2023-05-19T15:16:29.623Z,54.63
2023-05-19T15:18:56.837Z,54.38
2023-05-19T15:21:23.561Z,54.27
2023-05-19T15:23:50.450Z,54.43
2023-05-19T15:26:17.198Z,54.36
2023-05-19T15:28:43.845Z,54.00
2023-05-19T15:31:10.603Z,54.35
2023-05-19T15:33:37.368Z,54.01
2023-05-19T15:36:04.259Z,54.49
2023-05-19T15:38:35.201Z,55.27
2023-05-19T15:41:06.849Z,55.30
2023-05-19T15:43:33.488Z,55.18
2023-05-19T15:46:00.228Z,54.82
2023-05-19T15:48:28.996Z,55.40
2023-05-19T15:50:58.223Z,55.35
2023-05-19T15:53:25.619Z,55.48
2023-05-19T15:55:52.371Z,54.90
2023-05-19T15:58:19.016Z,55.44
2023-05-19T16:00:46.066Z,55.28
2023-05-19T16:03:12.891Z,55.92
2023-05-19T16:05:39.612Z,55.74
2023-05-19T16:08:08.502Z,55.59
2023-05-19T16:10:35.685Z,55.56
2023-05-19T16:13:02.433Z,56.19
2023-05-19T16:15:29.087Z,55.69
2023-05-19T16:17:55.948Z,56.04
2023-05-19T16:20:26.844Z,56.42
2023-05-19T16:22:54.288Z,56.21
2023-05-19T16:25:21.065Z,56.51
2023-05-19T16:27:47.805Z,56.30
2023-05-19T16:30:14.782Z,56.35
2023-05-19T16:32:41.522Z,56.34
2023-05-19T16:35:09.087Z,56.31
2023-05-19T16:37:35.752Z,55.93
2023-05-19T16:40:02.669Z,56.29
2023-05-19T16:42:29.310Z,56.56
2023-05-19T16:44:55.994Z,56.37
2023-05-19T16:47:22.675Z,56.55
2023-05-19T16:49:49.382Z,56.46
2023-05-19T16:52:16.076Z,56.81
2023-05-19T16:54:42.795Z,56.81
2023-05-19T16:57:09.933Z,57.02
2023-05-19T16:59:36.672Z,57.24
2023-05-19T17:02:03.544Z,57.06
2023-05-19T17:04:30.934Z,57.46
2023-05-19T17:06:57.860Z,56.95
2023-05-19T17:09:26.328Z,57.72
2023-05-19T17:11:53.784Z,58.01
2023-05-19T17:14:21.359Z,58.08
2023-05-19T17:16:48.754Z,57.78
2023-05-19T17:19:16.269Z,57.68
2023-05-19T17:21:43.167Z,57.77
2023-05-19T17:24:09.860Z,58.25
2023-05-19T17:26:36.602Z,57.97
2023-05-19T17:29:03.229Z,58.11
2023-05-19T17:31:29.938Z,57.94
2023-05-19T17:33:56.607Z,58.09
2023-05-19T17:36:23.265Z,57.40
2023-05-19T17:38:49.945Z,58.16
2023-05-19T17:41:16.793Z,58.26
2023-05-19T17:43:43.868Z,57.69
2023-05-19T17:46:11.756Z,57.76
2023-05-19T17:48:39.710Z,58.12
2023-05-19T17:51:09.445Z,58.81
2023-05-19T17:53:36.713Z,58.37
2023-05-19T17:56:06.600Z,58.23
2023-05-19T17:58:33.641Z,57.97
2023-05-19T18:01:00.574Z,57.50
2023-05-19T18:03:27.519Z,58.17
2023-05-19T18:05:54.489Z,57.98
2023-05-19T18:08:21.565Z,57.51
2023-05-19T18:10:51.302Z,57.65
2023-05-19T18:13:18.040Z,57.69
2023-05-19T18:15:44.678Z,56.59
2023-05-19T18:18:11.769Z,56.29
2023-05-19T18:20:39.435Z,56.38
2023-05-19T18:23:06.170Z,56.17
2023-05-19T18:25:32.851Z,56.07
2023-05-19T18:27:59.500Z,56.94
2023-05-19T18:30:26.200Z,56.16
2023-05-19T18:32:52.971Z,55.97
2023-05-19T18:35:21.178Z,55.80
2023-05-19T18:37:47.883Z,56.37
2023-05-19T18:40:14.564Z,56.36
2023-05-19T18:42:41.195Z,56.17
2023-05-19T18:45:08.269Z,56.80
2023-05-19T18:47:35.007Z,56.39
2023-05-19T18:50:01.710Z,56.52
2023-05-19T18:52:29.128Z,56.08
2023-05-19T18:54:55.939Z,56.77
2023-05-19T18:57:22.673Z,56.52
2023-05-19T18:59:49.345Z,56.85
2023-05-19T19:02:16.010Z,56.47
2023-05-19T19:04:42.762Z,56.82
2023-05-19T19:07:09.459Z,59.08
2023-05-19T19:09:36.142Z,59.30
2023-05-19T19:12:02.894Z,60.72
2023-05-19T19:14:29.620Z,63.41
2023-05-19T19:16:56.566Z,62.69
2023-05-19T19:19:23.955Z,60.72
2023-05-19T19:21:50.760Z,59.91
2023-05-19T19:24:17.423Z,59.16
2023-05-19T19:26:44.158Z,59.64
2023-05-19T19:29:10.921Z,58.78
2023-05-19T19:31:37.601Z,59.24
2023-05-19T19:34:09.122Z,59.15
2023-05-19T19:36:36.314Z,60.34
2023-05-19T19:39:03.052Z,62.88
2023-05-19T19:41:30.184Z,63.75
2023-05-19T19:43:56.848Z,63.45
2023-05-19T19:46:23.548Z,61.05
2023-05-19T19:48:50.233Z,61.08
2023-05-19T19:51:16.942Z,60.51
2023-05-19T19:53:43.719Z,60.60
2023-05-19T19:56:10.411Z,60.35
2023-05-19T19:58:37.153Z,60.55
2023-05-19T20:01:04.384Z,61.60
2023-05-19T20:03:31.888Z,62.34
2023-05-19T20:05:58.929Z,61.79
2023-05-19T20:08:26.529Z,62.25
2023-05-19T20:10:53.329Z,62.92
2023-05-19T20:13:20.262Z,62.93
2023-05-19T20:15:47.143Z,63.65
2023-05-19T20:18:13.900Z,62.28
2023-05-19T20:20:41.000Z,62.27
2023-05-19T20:23:08.144Z,62.39
2023-05-19T20:25:50.100Z,63.25
2023-05-19T20:28:25.847Z,63.06
2023-05-19T20:30:52.531Z,63.77
2023-05-19T20:33:19.206Z,62.72
2023-05-19T20:35:45.950Z,63.24
2023-05-19T20:38:12.625Z,63.10
2023-05-19T20:40:39.343Z,63.01
2023-05-19T20:43:06.118Z,62.79
2023-05-19T20:45:33.085Z,63.22
2023-05-19T20:48:00.778Z,63.29
2023-05-19T20:50:27.493Z,62.58
2023-05-19T20:52:54.342Z,62.06
2023-05-19T20:55:21.105Z,62.39
2023-05-19T20:57:47.777Z,62.83
2023-05-19T21:00:14.698Z,62.73
2023-05-19T21:02:41.427Z,63.45
2023-05-19T21:05:08.459Z,63.15
2023-05-19T21:07:35.270Z,62.31
2023-05-19T21:10:02.117Z,62.34
2023-05-19T21:12:34.018Z,63.12
2023-05-19T21:15:01.665Z,63.97
2023-05-19T21:17:28.448Z,63.97
2023-05-19T21:19:58.101Z,63.85
2023-05-19T21:22:26.482Z,64.34
2023-05-19T21:24:53.919Z,63.28
2023-05-19T21:27:20.762Z,64.04
2023-05-19T21:29:47.659Z,64.95
2023-05-19T21:32:14.291Z,65.30
2023-05-19T21:34:41.009Z,64.95
2023-05-19T21:37:07.734Z,63.77
2023-05-19T21:39:34.932Z,63.29
2023-05-19T21:42:01.586Z,63.29
2023-05-19T21:44:28.348Z,64.58
2023-05-19T21:46:55.164Z,65.31
2023-05-19T21:49:21.836Z,64.87
2023-05-19T21:51:48.486Z,65.86
2023-05-19T21:54:15.163Z,64.87
2023-05-19T21:56:41.835Z,63.97
2023-05-19T21:59:09.251Z,64.08
2023-05-19T22:01:35.955Z,64.05
2023-05-19T22:04:02.715Z,63.79
2023-05-19T22:06:29.826Z,66.10
2023-05-19T22:08:58.152Z,64.91
2023-05-19T22:11:24.807Z,64.51
2023-05-19T22:13:51.602Z,64.70
2023-05-19T22:16:18.306Z,64.25
2023-05-19T22:18:44.990Z,64.16
2023-05-19T22:21:11.808Z,63.77
2023-05-19T22:23:38.440Z,65.68
2023-05-19T22:26:05.262Z,66.17
2023-05-19T22:28:31.922Z,65.01
2023-05-19T22:30:58.591Z,64.19
2023-05-19T22:33:25.278Z,64.11
2023-05-19T22:35:51.984Z,65.41
2023-05-19T22:38:18.689Z,66.25
2023-05-19T22:40:45.564Z,65.74
2023-05-19T22:43:12.231Z,65.03
2023-05-19T22:45:39.214Z,64.23
2023-05-19T22:48:06.644Z,65.61
2023-05-19T22:50:33.408Z,64.34
2023-05-19T22:53:00.225Z,64.75
2023-05-19T22:55:26.969Z,64.07
2023-05-19T22:57:53.673Z,64.50
2023-05-19T23:00:21.075Z,64.69
2023-05-19T23:02:47.834Z,65.29
2023-05-19T23:05:14.611Z,68.18
2023-05-19T23:07:41.386Z,67.83
2023-05-19T23:10:08.595Z,68.42
2023-05-19T23:12:35.429Z,67.40
2023-05-19T23:15:02.761Z,66.06
2023-05-19T23:17:29.421Z,66.12
2023-05-19T23:19:56.236Z,65.79
2023-05-19T23:22:23.028Z,67.41
2023-05-19T23:24:49.720Z,67.38
2023-05-19T23:27:16.374Z,68.85
2023-05-19T23:29:47.290Z,68.67
2023-05-19T23:32:13.922Z,68.61
2023-05-19T23:34:40.666Z,68.12
2023-05-19T23:37:07.718Z,66.67
2023-05-19T23:39:34.472Z,67.91
2023-05-19T23:42:01.788Z,67.56
2023-05-19T23:44:28.426Z,67.15
2023-05-19T23:46:55.103Z,67.16
2023-05-19T23:49:22.081Z,67.96
2023-05-19T23:51:48.748Z,68.12
2023-05-19T23:54:15.450Z,67.26
2023-05-19T23:56:42.163Z,66.08
2023-05-19T23:59:08.840Z,65.68
